Time,TemperatureF,DewpointF,PressureIn,WindDirection,WindDirectionDegrees,WindSpeedMPH,WindSpeedGustMPH,Humidity,HourlyPrecipIn,Conditions,Clouds,dailyrainin,SoftwareType,DateUTC
2013-01-15 00:04:00,25.3,1.5,30.15,ENE,68,0.0,3.8,35,0.00,,---,0.00,VWS V14.01,2013-01-15 07:04:00,
2013-01-15 00:09:00,25.0,1.2,30.15,NNW,338,4.3,4.3,35,0.00,,---,0.00,VWS V14.01,2013-01-15 07:09:00,
2013-01-15 00:15:00,24.8,1.6,30.15,NNW,338,4.3,4.3,36,0.00,,---,0.00,VWS V14.01,2013-01-15 07:15:00,
2013-01-15 00:20:00,25.0,1.8,30.15,NNW,338,2.5,2.5,36,0.00,,---,0.00,VWS V14.01,2013-01-15 07:20:00,
2013-01-15 00:25:00,25.0,1.8,30.15,NNW,338,2.0,2.0,36,0.00,,---,0.00,VWS V14.01,2013-01-15 07:25:00,
2013-01-15 00:30:00,25.0,1.8,30.15,North,0,0.9,0.9,36,0.00,,---,0.00,VWS V14.01,2013-01-15 07:30:00,
2013-01-15 00:35:00,25.2,2.0,30.15,NNW,338,1.6,2.5,36,0.00,,---,0.00,VWS V14.01,2013-01-15 07:35:00,
2013-01-15 00:40:00,25.2,2.0,30.15,NNW,338,1.6,2.5,36,0.00,,---,0.00,VWS V14.01,2013-01-15 07:40:00,
2013-01-15 00:45:00,25.3,2.1,30.15,NNW,338,0.0,0.0,36,0.00,,---,0.00,VWS V14.01,2013-01-15 07:45:00,
2013-01-15 00:50:00,25.3,2.1,30.15,NW,315,1.1,1.1,36,0.00,,---,0.00,VWS V14.01,2013-01-15 07:50:00,
2013-01-15 00:55:00,25.3,2.1,30.15,North,0,0.0,0.0,36,0.00,,---,0.00,VWS V14.01,2013-01-15 07:55:00,
2013-01-15 01:00:00,24.8,2.2,30.15,North,0,1.1,1.3,37,0.00,,---,0.00,VWS V14.01,2013-01-15 08:00:00,
2013-01-15 01:05:00,24.8,2.2,30.15,North,0,1.3,1.3,37,0.00,,---,0.00,VWS V14.01,2013-01-15 08:05:00,
2013-01-15 01:10:00,24.8,2.2,30.15,North,0,0.0,0.0,37,0.00,,---,0.00,VWS V14.01,2013-01-15 08:10:00,
2013-01-15 01:15:00,24.3,1.8,30.15,East,90,1.1,2.9,37,0.00,,---,0.00,VWS V14.01,2013-01-15 08:15:00,
2013-01-15 01:20:00,23.9,1.4,30.15,SW,225,2.5,2.5,37,0.00,,---,0.00,VWS V14.01,2013-01-15 08:20:00,
2013-01-15 01:25:00,23.7,1.3,30.15,SW,225,0.0,1.1,37,0.00,,---,0.00,VWS V14.01,2013-01-15 08:25:00,
2013-01-15 01:30:00,23.4,0.9,30.15,SW,225,1.6,1.6,37,0.00,,---,0.00,VWS V14.01,2013-01-15 08:30:00,
2013-01-15 01:35:00,23.0,1.2,30.15,SW,225,0.0,0.0,38,0.00,,---,0.00,VWS V14.01,2013-01-15 08:35:00,
2013-01-15 01:40:00,22.8,1.0,30.15,SW,225,0.0,0.0,38,0.00,,---,0.00,VWS V14.01,2013-01-15 08:40:00,
2013-01-15 01:45:00,22.8,1.0,30.15,SW,225,0.0,0.0,38,0.00,,---,0.00,VWS V14.01,2013-01-15 08:45:00,
2013-01-15 01:51:00,22.8,1.0,30.15,NNW,338,0.0,0.0,38,0.00,,---,0.00,VWS V14.01,2013-01-15 08:51:00,
2013-01-15 01:56:00,22.6,1.4,30.15,NNW,338,2.0,2.0,39,0.00,,---,0.00,VWS V14.01,2013-01-15 08:56:00,
2013-01-15 02:01:00,22.6,2.0,30.15,North,0,1.3,1.6,40,0.00,,---,0.00,VWS V14.01,2013-01-15 09:01:00,
2013-01-15 02:06:00,22.5,1.8,30.15,NNW,338,0.0,0.0,40,0.00,,---,0.00,VWS V14.01,2013-01-15 09:06:00,
2013-01-15 02:11:00,22.5,1.8,30.15,NNW,338,0.0,0.0,40,0.00,,---,0.00,VWS V14.01,2013-01-15 09:11:00,
2013-01-15 02:16:00,22.3,1.6,30.15,NNW,338,1.6,1.6,40,0.00,,---,0.00,VWS V14.01,2013-01-15 09:16:00,
2013-01-15 02:21:00,22.3,1.6,30.15,NNW,338,0.0,0.0,40,0.00,,---,0.00,VWS V14.01,2013-01-15 09:21:00,
2013-01-15 02:26:00,22.3,2.2,30.15,North,0,1.3,1.3,41,0.00,,---,0.00,VWS V14.01,2013-01-15 09:26:00,
2013-01-15 02:31:00,22.3,2.7,30.15,North,0,0.9,2.2,42,0.00,,---,0.00,VWS V14.01,2013-01-15 09:31:00,
2013-01-15 02:36:00,22.1,2.5,30.15,WNW,292,1.3,1.3,42,0.00,,---,0.00,VWS V14.01,2013-01-15 09:36:00,
2013-01-15 02:41:00,22.3,2.7,30.15,NNW,338,1.6,1.6,42,0.00,,---,0.00,VWS V14.01,2013-01-15 09:41:00,
2013-01-15 02:46:00,22.3,2.7,30.15,NNW,338,0.0,0.0,42,0.00,,---,0.00,VWS V14.01,2013-01-15 09:46:00,
2013-01-15 02:52:00,22.5,2.8,30.15,North,0,1.3,2.2,42,0.00,,---,0.00,VWS V14.01,2013-01-15 09:52:00,
2013-01-15 02:57:00,22.8,3.7,30.15,North,0,1.3,2.0,43,0.00,,---,0.00,VWS V14.01,2013-01-15 09:57:00,
2013-01-15 03:02:00,22.8,3.7,30.15,North,0,1.6,1.6,43,0.00,,---,0.00,VWS V14.01,2013-01-15 10:02:00,
2013-01-15 03:07:00,22.8,3.7,30.15,NNW,338,0.0,0.0,43,0.00,,---,0.00,VWS V14.01,2013-01-15 10:07:00,
2013-01-15 03:12:00,22.8,3.7,30.18,NNW,338,0.0,1.1,43,0.00,,---,0.00,VWS V14.01,2013-01-15 10:12:00,
2013-01-15 03:17:00,22.6,3.5,30.18,NNW,338,0.0,0.0,43,0.00,,---,0.00,VWS V14.01,2013-01-15 10:17:00,
2013-01-15 03:22:00,22.5,3.4,30.18,NNW,338,0.0,0.0,43,0.00,,---,0.00,VWS V14.01,2013-01-15 10:22:00,
2013-01-15 03:27:00,22.6,3.5,30.18,NW,315,1.1,2.5,43,0.00,,---,0.00,VWS V14.01,2013-01-15 10:27:00,
2013-01-15 03:32:00,23.0,3.8,30.18,NNW,338,2.2,2.2,43,0.00,,---,0.00,VWS V14.01,2013-01-15 10:32:00,
2013-01-15 03:37:00,23.2,4.0,30.18,North,0,0.0,0.0,43,0.00,,---,0.00,VWS V14.01,2013-01-15 10:37:00,
2013-01-15 03:42:00,23.2,3.5,30.18,East,90,0.0,0.0,42,0.00,,---,0.00,VWS V14.01,2013-01-15 10:42:00,
2013-01-15 03:47:00,22.8,3.7,30.18,SE,135,0.0,0.0,43,0.00,,---,0.00,VWS V14.01,2013-01-15 10:47:00,
2013-01-15 03:52:00,22.5,3.4,30.18,SSW,202,0.0,0.0,43,0.00,,---,0.00,VWS V14.01,2013-01-15 10:52:00,
2013-01-15 03:57:00,22.3,3.2,30.18,South,180,0.0,0.0,43,0.00,,---,0.00,VWS V14.01,2013-01-15 10:57:00,
2013-01-15 04:02:00,21.9,2.9,30.18,South,180,0.0,0.0,43,0.00,,---,0.00,VWS V14.01,2013-01-15 11:02:00,
2013-01-15 04:07:00,21.6,2.5,30.18,South,180,0.0,0.0,43,0.00,,---,0.00,VWS V14.01,2013-01-15 11:07:00,
2013-01-15 04:12:00,21.2,2.2,30.18,South,180,0.0,0.0,43,0.00,,---,0.00,VWS V14.01,2013-01-15 11:12:00,
2013-01-15 04:17:00,21.0,2.5,30.18,South,180,0.0,0.0,44,0.00,,---,0.00,VWS V14.01,2013-01-15 11:17:00,
2013-01-15 04:22:00,20.8,2.4,30.18,South,180,0.0,0.0,44,0.00,,---,0.00,VWS V14.01,2013-01-15 11:22:00,
2013-01-15 04:27:00,20.7,2.2,30.18,South,180,0.0,0.0,44,0.00,,---,0.00,VWS V14.01,2013-01-15 11:27:00,
2013-01-15 04:32:00,20.7,2.2,30.18,South,180,0.0,0.0,44,0.00,,---,0.00,VWS V14.01,2013-01-15 11:32:00,
2013-01-15 04:38:00,20.7,2.2,30.18,South,180,0.0,0.0,44,0.00,,---,0.00,VWS V14.01,2013-01-15 11:38:00,
2013-01-15 04:43:00,20.3,1.9,30.18,ENE,68,0.0,0.0,44,0.00,,---,0.00,VWS V14.01,2013-01-15 11:43:00,
2013-01-15 04:48:00,20.3,1.9,30.18,NNW,338,0.0,0.0,44,0.00,,---,0.00,VWS V14.01,2013-01-15 11:48:00,
2013-01-15 04:53:00,20.3,2.4,30.18,NNW,338,2.7,2.7,45,0.00,,---,0.00,VWS V14.01,2013-01-15 11:53:00,
2013-01-15 04:58:00,20.5,2.5,30.18,ENE,68,0.0,0.0,45,0.00,,---,0.00,VWS V14.01,2013-01-15 11:58:00,
2013-01-15 05:03:00,20.5,2.5,30.18,North,0,2.0,2.0,45,0.00,,---,0.00,VWS V14.01,2013-01-15 12:03:00,
2013-01-15 05:08:00,20.5,3.0,30.18,NNE,22,1.3,1.3,46,0.00,,---,0.00,VWS V14.01,2013-01-15 12:08:00,
2013-01-15 05:13:00,20.7,3.2,30.18,NNW,338,0.0,0.0,46,0.00,,---,0.00,VWS V14.01,2013-01-15 12:13:00,
2013-01-15 05:18:00,20.8,3.3,30.18,North,0,0.0,2.5,46,0.00,,---,0.00,VWS V14.01,2013-01-15 12:18:00,
2013-01-15 05:23:00,20.7,3.6,30.18,North,0,0.9,0.9,47,0.00,,---,0.00,VWS V14.01,2013-01-15 12:23:00,
2013-01-15 05:28:00,20.5,3.0,30.18,East,90,0.9,0.9,46,0.00,,---,0.00,VWS V14.01,2013-01-15 12:28:00,
2013-01-15 05:33:00,20.7,3.2,30.18,ESE,112,0.0,3.4,46,0.00,,---,0.00,VWS V14.01,2013-01-15 12:33:00,
2013-01-15 05:38:00,20.5,3.5,30.18,NNW,338,1.3,1.3,47,0.00,,---,0.00,VWS V14.01,2013-01-15 12:38:00,
2013-01-15 05:43:00,20.7,3.6,30.18,NW,315,2.5,2.5,47,0.00,,---,0.00,VWS V14.01,2013-01-15 12:43:00,
2013-01-15 05:48:00,20.7,3.6,30.18,North,0,1.6,2.2,47,0.00,,---,0.00,VWS V14.01,2013-01-15 12:48:00,
2013-01-15 05:53:00,20.5,3.5,30.18,North,0,0.0,0.0,47,0.00,,---,0.00,VWS V14.01,2013-01-15 12:53:00,
2013-01-15 05:58:00,20.3,3.3,30.18,North,0,0.0,0.0,47,0.00,,---,0.00,VWS V14.01,2013-01-15 12:58:00,
2013-01-15 06:03:00,20.1,3.1,30.18,North,0,0.0,0.0,47,0.00,,---,0.00,VWS V14.01,2013-01-15 13:03:00,
2013-01-15 06:08:00,20.3,3.3,30.18,North,0,1.3,1.3,47,0.00,,---,0.00,VWS V14.01,2013-01-15 13:08:00,
2013-01-15 06:14:00,21.2,4.1,30.21,NW,315,4.3,4.3,47,0.00,,---,0.00,VWS V14.01,2013-01-15 13:14:00,
2013-01-15 06:19:00,22.8,4.7,30.21,North,0,7.2,7.2,45,0.00,,---,0.00,VWS V14.01,2013-01-15 13:19:00,
2013-01-15 06:24:00,24.1,5.3,30.21,NNW,338,3.4,3.4,44,0.00,,---,0.00,VWS V14.01,2013-01-15 13:24:00,
2013-01-15 06:29:00,25.0,5.1,30.21,NNE,22,2.5,2.5,42,0.00,,---,0.00,VWS V14.01,2013-01-15 13:29:00,
2013-01-15 06:34:00,25.5,5.6,30.21,NW,315,1.1,1.1,42,0.00,,---,0.00,VWS V14.01,2013-01-15 13:34:00,
2013-01-15 06:39:00,25.9,6.0,30.21,NNW,338,3.4,3.4,42,0.00,,---,0.00,VWS V14.01,2013-01-15 13:39:00,
2013-01-15 06:44:00,26.1,5.6,30.21,WNW,292,3.8,3.8,41,0.00,,---,0.00,VWS V14.01,2013-01-15 13:44:00,
2013-01-15 06:49:00,26.2,5.8,30.21,WSW,248,1.6,2.0,41,0.00,,---,0.00,VWS V14.01,2013-01-15 13:49:00,
2013-01-15 06:54:00,25.5,5.6,30.21,South,180,1.3,1.6,42,0.00,,---,0.00,VWS V14.01,2013-01-15 13:54:00,
2013-01-15 06:59:00,24.4,4.7,30.21,South,180,0.0,1.1,42,0.00,,---,0.00,VWS V14.01,2013-01-15 13:59:00,
2013-01-15 07:04:00,23.7,4.0,30.21,South,180,0.9,1.6,42,0.00,,---,0.00,VWS V14.01,2013-01-15 14:04:00,
2013-01-15 07:09:00,23.2,3.5,30.21,South,180,0.0,0.0,42,0.00,,---,0.00,VWS V14.01,2013-01-15 14:09:00,
2013-01-15 07:14:00,22.6,3.5,30.21,West,270,1.6,1.6,43,0.00,,---,0.00,VWS V14.01,2013-01-15 14:14:00,
2013-01-15 07:19:00,22.5,3.4,30.21,NW,315,0.0,0.0,43,0.00,,---,0.00,VWS V14.01,2013-01-15 14:19:00,
2013-01-15 07:25:00,22.3,3.2,30.21,NE,45,0.0,1.3,43,0.00,,---,0.00,VWS V14.01,2013-01-15 14:25:00,
2013-01-15 07:30:00,21.9,2.9,30.21,East,90,0.0,0.0,43,0.00,,---,0.00,VWS V14.01,2013-01-15 14:30:00,
2013-01-15 07:35:00,21.7,2.7,30.21,WSW,248,1.6,1.6,43,0.00,,---,0.00,VWS V14.01,2013-01-15 14:35:00,
2013-01-15 07:40:00,21.7,2.7,30.21,West,270,1.3,1.3,43,0.00,,---,0.00,VWS V14.01,2013-01-15 14:40:00,
2013-01-15 07:45:00,21.6,3.0,30.21,WSW,248,0.0,0.0,44,0.00,,---,0.00,VWS V14.01,2013-01-15 14:45:00,
2013-01-15 07:50:00,21.4,2.9,30.21,WSW,248,0.0,0.0,44,0.00,,---,0.00,VWS V14.01,2013-01-15 14:50:00,
2013-01-15 07:55:00,21.4,2.9,30.24,WSW,248,0.0,0.0,44,0.00,,---,0.00,VWS V14.01,2013-01-15 14:55:00,
2013-01-15 08:00:00,21.4,2.9,30.24,WSW,248,0.0,0.0,44,0.00,,---,0.00,VWS V14.01,2013-01-15 15:00:00,
2013-01-15 08:05:00,21.6,3.0,30.24,East,90,0.0,0.0,44,0.00,,---,0.00,VWS V14.01,2013-01-15 15:05:00,
2013-01-15 08:10:00,21.7,3.2,30.24,NE,45,0.0,0.0,44,0.00,,---,0.00,VWS V14.01,2013-01-15 15:10:00,
2013-01-15 08:16:00,22.5,3.9,30.24,ENE,68,0.0,0.0,44,0.00,,---,0.00,VWS V14.01,2013-01-15 15:16:00,
2013-01-15 08:21:00,23.2,4.5,30.24,ENE,68,0.0,0.0,44,0.00,,---,0.00,VWS V14.01,2013-01-15 15:21:00,
2013-01-15 08:26:00,23.7,5.0,30.24,East,90,0.9,0.9,44,0.00,,---,0.00,VWS V14.01,2013-01-15 15:26:00,
2013-01-15 08:31:00,25.3,6.5,30.24,ESE,112,2.5,4.9,44,0.00,,---,0.00,VWS V14.01,2013-01-15 15:31:00,
2013-01-15 08:36:00,26.4,7.0,30.24,ESE,112,4.3,4.3,43,0.00,,---,0.00,VWS V14.01,2013-01-15 15:36:00,
2013-01-15 08:41:00,27.7,7.6,30.27,West,270,5.8,5.8,42,0.00,,---,0.00,VWS V14.01,2013-01-15 15:41:00,
2013-01-15 08:46:00,29.5,7.6,30.27,East,90,4.0,8.7,39,0.00,,---,0.00,VWS V14.01,2013-01-15 15:46:00,
2013-01-15 08:51:00,30.4,6.6,30.27,NW,315,3.6,3.6,36,0.00,,---,0.00,VWS V14.01,2013-01-15 15:51:00,
2013-01-15 08:56:00,31.5,7.0,30.27,NNE,22,6.5,6.5,35,0.00,,---,0.00,VWS V14.01,2013-01-15 15:56:00,
2013-01-15 09:01:00,32.5,6.6,30.27,NNW,338,5.8,8.7,33,0.00,,---,0.00,VWS V14.01,2013-01-15 16:01:00,
2013-01-15 09:06:00,33.1,7.1,30.27,North,0,4.7,7.2,33,0.00,,---,0.00,VWS V14.01,2013-01-15 16:06:00,
2013-01-15 09:11:00,33.6,6.9,30.27,North,0,4.7,6.0,32,0.00,,---,0.00,VWS V14.01,2013-01-15 16:11:00,
2013-01-15 09:16:00,34.3,6.9,30.27,WNW,292,3.6,4.0,31,0.00,,---,0.00,VWS V14.01,2013-01-15 16:16:00,
2013-01-15 09:21:00,34.7,7.2,30.27,ENE,68,3.8,3.8,31,0.00,,---,0.00,VWS V14.01,2013-01-15 16:21:00,
2013-01-15 09:26:00,34.9,7.3,30.27,North,0,5.4,5.4,31,0.00,,---,0.00,VWS V14.01,2013-01-15 16:26:00,
2013-01-15 09:31:00,35.1,7.5,30.27,West,270,1.6,5.6,31,0.00,,---,0.00,VWS V14.01,2013-01-15 16:31:00,
2013-01-15 09:37:00,35.4,7.8,30.27,North,0,4.9,4.9,31,0.00,,---,0.00,VWS V14.01,2013-01-15 16:37:00,
2013-01-15 09:42:00,35.6,7.2,30.27,North,0,7.4,7.4,30,0.00,,---,0.00,VWS V14.01,2013-01-15 16:42:00,
2013-01-15 09:47:00,35.6,7.2,30.27,NW,315,7.6,9.8,30,0.00,,---,0.00,VWS V14.01,2013-01-15 16:47:00,
2013-01-15 09:52:00,35.6,7.2,30.27,WNW,292,7.4,7.4,30,0.00,,---,0.00,VWS V14.01,2013-01-15 16:52:00,
2013-01-15 09:57:00,35.8,7.4,30.27,NNW,338,7.8,9.8,30,0.00,,---,0.00,VWS V14.01,2013-01-15 16:57:00,
2013-01-15 10:02:00,36.1,7.0,30.27,NNW,338,6.0,6.0,29,0.00,,---,0.00,VWS V14.01,2013-01-15 17:02:00,
2013-01-15 10:07:00,36.1,7.0,30.27,NNW,338,15.2,15.2,29,0.00,,---,0.00,VWS V14.01,2013-01-15 17:07:00,
2013-01-15 10:12:00,36.3,7.1,30.24,North,0,4.7,9.2,29,0.00,,---,0.00,VWS V14.01,2013-01-15 17:12:00,
2013-01-15 10:17:00,36.7,7.4,30.24,North,0,10.7,10.7,29,0.00,,---,0.00,VWS V14.01,2013-01-15 17:17:00,
2013-01-15 10:22:00,36.9,7.6,30.24,NNW,338,6.3,6.3,29,0.00,,---,0.00,VWS V14.01,2013-01-15 17:22:00,
2013-01-15 10:27:00,37.2,7.9,30.27,North,0,12.1,12.1,29,0.00,,---,0.00,VWS V14.01,2013-01-15 17:27:00,
2013-01-15 10:33:00,37.6,8.2,30.27,NNE,22,3.6,3.6,29,0.00,,---,0.00,VWS V14.01,2013-01-15 17:33:00,
2013-01-15 10:38:00,37.9,8.5,30.27,NE,45,2.7,7.4,29,0.00,,---,0.00,VWS V14.01,2013-01-15 17:38:00,
2013-01-15 10:43:00,38.5,9.0,30.24,NNW,338,9.8,9.8,29,0.00,,---,0.00,VWS V14.01,2013-01-15 17:43:00,
2013-01-15 10:48:00,38.7,6.7,30.24,NNW,338,6.5,6.5,26,0.00,,---,0.00,VWS V14.01,2013-01-15 17:48:00,
2013-01-15 10:53:00,38.8,6.9,30.24,NE,45,3.6,3.8,26,0.00,,---,0.00,VWS V14.01,2013-01-15 17:53:00,
2013-01-15 10:58:00,39.0,7.1,30.24,NNE,22,7.4,7.4,26,0.00,,---,0.00,VWS V14.01,2013-01-15 17:58:00,
2013-01-15 11:03:00,39.2,7.2,30.24,WSW,248,4.7,6.7,26,0.00,,---,0.00,VWS V14.01,2013-01-15 18:03:00,
2013-01-15 11:08:00,39.6,7.5,30.24,NNE,22,4.3,13.0,26,0.00,,---,0.00,VWS V14.01,2013-01-15 18:08:00,
2013-01-15 11:13:00,39.6,7.5,30.24,NNW,338,3.8,5.4,26,0.00,,---,0.00,VWS V14.01,2013-01-15 18:13:00,
2013-01-15 11:18:00,39.7,7.7,30.24,NNW,338,5.8,6.9,26,0.00,,---,0.00,VWS V14.01,2013-01-15 18:18:00,
2013-01-15 11:23:00,39.9,7.8,30.24,NW,315,5.4,5.4,26,0.00,,---,0.00,VWS V14.01,2013-01-15 18:23:00,
2013-01-15 11:29:00,40.1,8.0,30.24,North,0,7.6,7.6,26,0.00,,---,0.00,VWS V14.01,2013-01-15 18:29:00,
2013-01-15 11:34:00,40.3,8.1,30.24,North,0,8.1,8.1,26,0.00,,---,0.00,VWS V14.01,2013-01-15 18:34:00,
2013-01-15 11:39:00,40.3,8.1,30.24,NW,315,7.2,8.1,26,0.00,,---,0.00,VWS V14.01,2013-01-15 18:39:00,
2013-01-15 11:44:00,40.5,8.3,30.24,NW,315,7.8,7.8,26,0.00,,---,0.00,VWS V14.01,2013-01-15 18:44:00,
2013-01-15 11:49:00,40.6,8.4,30.24,WNW,292,5.6,12.1,26,0.00,,---,0.00,VWS V14.01,2013-01-15 18:49:00,
2013-01-15 11:54:00,41.0,6.1,30.24,NNE,22,9.8,9.8,23,0.00,,---,0.00,VWS V14.01,2013-01-15 18:54:00,
2013-01-15 11:59:00,41.4,9.1,30.21,North,0,4.0,6.3,26,0.00,,---,0.00,VWS V14.01,2013-01-15 18:59:00,
2013-01-15 12:04:00,41.4,9.1,30.21,NNW,338,5.4,5.4,26,0.00,,---,0.00,VWS V14.01,2013-01-15 19:04:00,
2013-01-15 12:09:00,41.2,6.2,30.21,NNW,338,10.3,10.3,23,0.00,,---,0.00,VWS V14.01,2013-01-15 19:09:00,
2013-01-15 12:14:00,41.4,9.1,30.21,NNE,22,6.5,6.5,26,0.00,,---,0.00,VWS V14.01,2013-01-15 19:14:00,
2013-01-15 12:19:00,41.9,6.8,30.21,North,0,4.7,7.8,23,0.00,,---,0.00,VWS V14.01,2013-01-15 19:19:00,
2013-01-15 12:24:00,42.3,7.1,30.18,NNW,338,5.4,5.4,23,0.00,,---,0.00,VWS V14.01,2013-01-15 19:24:00,
2013-01-15 12:29:00,42.3,7.1,30.18,NNW,338,8.1,8.1,23,0.00,,---,0.00,VWS V14.01,2013-01-15 19:29:00,
2013-01-15 12:35:00,42.3,7.1,30.18,NW,315,6.0,6.0,23,0.00,,---,0.00,VWS V14.01,2013-01-15 19:35:00,
2013-01-15 12:40:00,42.3,7.1,30.18,North,0,5.4,5.4,23,0.00,,---,0.00,VWS V14.01,2013-01-15 19:40:00,
2013-01-15 12:45:00,42.3,7.1,30.18,NNW,338,10.1,10.1,23,0.00,,---,0.00,VWS V14.01,2013-01-15 19:45:00,
2013-01-15 12:50:00,42.3,7.1,30.18,North,0,5.4,5.4,23,0.00,,---,0.00,VWS V14.01,2013-01-15 19:50:00,
2013-01-15 12:55:00,42.4,7.3,30.21,North,0,6.5,6.5,23,0.00,,---,0.00,VWS V14.01,2013-01-15 19:55:00,
2013-01-15 13:00:00,42.4,7.3,30.21,North,0,6.0,7.6,23,0.00,,---,0.00,VWS V14.01,2013-01-15 20:00:00,
2013-01-15 13:05:00,42.8,7.6,30.21,North,0,3.1,3.1,23,0.00,,---,0.00,VWS V14.01,2013-01-15 20:05:00,
2013-01-15 13:10:00,43.0,7.7,30.18,North,0,2.9,11.0,23,0.00,,---,0.00,VWS V14.01,2013-01-15 20:10:00,
2013-01-15 13:15:00,43.3,8.0,30.18,NW,315,7.4,7.6,23,0.00,,---,0.00,VWS V14.01,2013-01-15 20:15:00,
2013-01-15 13:20:00,43.5,8.2,30.18,North,0,8.7,8.7,23,0.00,,---,0.00,VWS V14.01,2013-01-15 20:20:00,
2013-01-15 13:25:00,43.5,8.2,30.18,WNW,292,17.2,17.2,23,0.00,,---,0.00,VWS V14.01,2013-01-15 20:25:00,
2013-01-15 13:30:00,43.5,8.2,30.18,NW,315,6.0,6.0,23,0.00,,---,0.00,VWS V14.01,2013-01-15 20:30:00,
2013-01-15 13:35:00,43.5,8.2,30.18,North,0,10.5,10.5,23,0.00,,---,0.00,VWS V14.01,2013-01-15 20:35:00,
2013-01-15 13:40:00,43.9,8.5,30.18,NNE,22,6.5,6.5,23,0.00,,---,0.00,VWS V14.01,2013-01-15 20:40:00,
2013-01-15 13:46:00,44.1,8.6,30.18,NW,315,10.3,10.3,23,0.00,,---,0.00,VWS V14.01,2013-01-15 20:46:00,
2013-01-15 13:51:00,43.9,8.5,30.18,NNW,338,10.3,10.3,23,0.00,,---,0.00,VWS V14.01,2013-01-15 20:51:00,
2013-01-15 13:56:00,43.7,8.3,30.18,NE,45,7.2,8.7,23,0.00,,---,0.00,VWS V14.01,2013-01-15 20:56:00,
2013-01-15 14:01:00,44.2,8.8,30.18,NNW,338,8.1,8.1,23,0.00,,---,0.00,VWS V14.01,2013-01-15 21:01:00,
2013-01-15 14:06:00,44.2,8.8,30.18,NNW,338,3.8,5.8,23,0.00,,---,0.00,VWS V14.01,2013-01-15 21:06:00,
2013-01-15 14:11:00,44.6,8.1,30.18,WNW,292,5.4,9.4,22,0.00,,---,0.00,VWS V14.01,2013-01-15 21:11:00,
2013-01-15 14:16:00,44.6,8.1,30.18,NW,315,7.2,7.2,22,0.00,,---,0.00,VWS V14.01,2013-01-15 21:16:00,
2013-01-15 14:21:00,44.8,8.3,30.18,NW,315,11.0,11.0,22,0.00,,---,0.00,VWS V14.01,2013-01-15 21:21:00,
2013-01-15 14:26:00,45.0,8.4,30.18,NE,45,3.8,6.3,22,0.00,,---,0.00,VWS V14.01,2013-01-15 21:26:00,
2013-01-15 14:31:00,45.1,8.6,30.18,North,0,12.8,12.8,22,0.00,,---,0.00,VWS V14.01,2013-01-15 21:31:00,
2013-01-15 14:36:00,45.1,8.6,30.18,NNW,338,4.9,4.9,22,0.00,,---,0.00,VWS V14.01,2013-01-15 21:36:00,
2013-01-15 14:42:00,45.1,8.6,30.18,NNW,338,6.0,10.3,22,0.00,,---,0.00,VWS V14.01,2013-01-15 21:42:00,
2013-01-15 14:47:00,45.3,8.7,30.18,NNE,22,10.1,10.1,22,0.00,,---,0.00,VWS V14.01,2013-01-15 21:47:00,
2013-01-15 14:51:00,45.5,8.9,30.18,North,0,6.3,6.3,22,0.00,,---,0.00,VWS V14.01,2013-01-15 21:51:00,
2013-01-15 14:56:00,45.5,8.9,30.18,NNW,338,9.2,9.2,22,0.00,,---,0.00,VWS V14.01,2013-01-15 21:56:00,
2013-01-15 15:01:00,45.5,8.9,30.18,North,0,11.0,11.0,22,0.00,,---,0.00,VWS V14.01,2013-01-15 22:01:00,
2013-01-15 15:06:00,45.5,8.9,30.18,NNW,338,15.9,15.9,22,0.00,,---,0.00,VWS V14.01,2013-01-15 22:06:00,
2013-01-15 15:12:00,45.3,8.7,30.18,NW,315,4.7,7.4,22,0.00,,---,0.00,VWS V14.01,2013-01-15 22:12:00,
2013-01-15 15:17:00,45.7,9.0,30.18,WNW,292,17.5,17.5,22,0.00,,---,0.00,VWS V14.01,2013-01-15 22:17:00,
2013-01-15 15:22:00,45.7,9.0,30.18,NNW,338,11.0,11.0,22,0.00,,---,0.00,VWS V14.01,2013-01-15 22:22:00,
2013-01-15 15:27:00,45.7,9.0,30.18,NNW,338,7.6,7.6,22,0.00,,---,0.00,VWS V14.01,2013-01-15 22:27:00,
2013-01-15 15:32:00,45.9,9.2,30.18,NW,315,13.4,13.4,22,0.00,,---,0.00,VWS V14.01,2013-01-15 22:32:00,
2013-01-15 15:37:00,45.9,9.2,30.18,NNW,338,5.8,7.4,22,0.00,,---,0.00,VWS V14.01,2013-01-15 22:37:00,
2013-01-15 15:42:00,45.9,9.2,30.18,North,0,10.1,10.1,22,0.00,,---,0.00,VWS V14.01,2013-01-15 22:42:00,
2013-01-15 15:47:00,45.9,9.2,30.18,NNW,338,13.2,13.2,22,0.00,,---,0.00,VWS V14.01,2013-01-15 22:47:00,
2013-01-15 15:52:00,45.9,9.2,30.18,NW,315,10.7,10.7,22,0.00,,---,0.00,VWS V14.01,2013-01-15 22:52:00,
2013-01-15 15:57:00,45.9,9.2,30.15,NW,315,6.0,14.8,22,0.00,,---,0.00,VWS V14.01,2013-01-15 22:57:00,
2013-01-15 16:02:00,45.7,9.0,30.15,WNW,292,15.4,15.4,22,0.00,,---,0.00,VWS V14.01,2013-01-15 23:02:00,
2013-01-15 16:07:00,45.7,9.0,30.15,NW,315,9.8,9.8,22,0.00,,---,0.00,VWS V14.01,2013-01-15 23:07:00,
2013-01-15 16:12:00,45.5,8.9,30.18,NW,315,15.4,15.4,22,0.00,,---,0.00,VWS V14.01,2013-01-15 23:12:00,
2013-01-15 16:17:00,45.5,8.9,30.18,NW,315,5.4,5.4,22,0.00,,---,0.00,VWS V14.01,2013-01-15 23:17:00,
2013-01-15 16:22:00,45.3,8.7,30.18,North,0,5.4,5.4,22,0.00,,---,0.00,VWS V14.01,2013-01-15 23:22:00,
2013-01-15 16:27:00,45.3,8.7,30.18,North,0,7.8,7.8,22,0.00,,---,0.00,VWS V14.01,2013-01-15 23:27:00,
2013-01-15 16:33:00,45.3,8.7,30.18,NNE,22,8.1,11.2,22,0.00,,---,0.00,VWS V14.01,2013-01-15 23:33:00,
2013-01-15 16:38:00,45.1,8.6,30.18,NNW,338,3.4,4.0,22,0.00,,---,0.00,VWS V14.01,2013-01-15 23:38:00,
2013-01-15 16:43:00,45.1,8.6,30.18,North,0,5.8,6.3,22,0.00,,---,0.00,VWS V14.01,2013-01-15 23:43:00,
2013-01-15 16:48:00,45.0,8.4,30.18,ENE,68,3.8,3.8,22,0.00,,---,0.00,VWS V14.01,2013-01-15 23:48:00,
2013-01-15 16:53:00,44.8,8.3,30.18,NNE,22,3.1,4.3,22,0.00,,---,0.00,VWS V14.01,2013-01-15 23:53:00,
2013-01-15 16:58:00,44.8,8.3,30.21,NNE,22,7.2,7.2,22,0.00,,---,0.00,VWS V14.01,2013-01-15 23:58:00,
2013-01-15 17:03:00,44.6,8.1,30.21,South,180,3.8,3.8,22,0.00,,---,0.00,VWS V14.01,2013-01-16 00:03:00,
2013-01-15 17:08:00,44.4,8.9,30.21,WNW,292,2.7,3.4,23,0.00,,---,0.00,VWS V14.01,2013-01-16 00:08:00,
2013-01-15 17:13:00,44.2,8.8,30.21,SE,135,2.7,2.9,23,0.00,,---,0.00,VWS V14.01,2013-01-16 00:13:00,
2013-01-15 17:18:00,43.9,8.5,30.21,NE,45,4.0,4.0,23,0.00,,---,0.00,VWS V14.01,2013-01-16 00:18:00,
2013-01-15 17:23:00,43.5,8.2,30.21,East,90,2.5,2.9,23,0.00,,---,0.00,VWS V14.01,2013-01-16 00:23:00,
2013-01-15 17:28:00,43.2,7.9,30.18,East,90,1.1,5.4,23,0.00,,---,0.00,VWS V14.01,2013-01-16 00:28:00,
2013-01-15 17:34:00,42.8,7.6,30.18,SSE,158,3.8,3.8,23,0.00,,---,0.00,VWS V14.01,2013-01-16 00:34:00,
2013-01-15 17:39:00,42.4,7.3,30.18,SW,225,3.1,3.1,23,0.00,,---,0.00,VWS V14.01,2013-01-16 00:39:00,
2013-01-15 17:44:00,42.3,7.1,30.21,SW,225,2.2,3.4,23,0.00,,---,0.00,VWS V14.01,2013-01-16 00:44:00,
2013-01-15 17:49:00,41.7,6.7,30.21,South,180,2.0,2.0,23,0.00,,---,0.00,VWS V14.01,2013-01-16 00:49:00,
2013-01-15 17:54:00,41.2,6.2,30.21,SW,225,3.6,3.6,23,0.00,,---,0.00,VWS V14.01,2013-01-16 00:54:00,
2013-01-15 17:59:00,41.2,6.2,30.21,NW,315,1.3,2.2,23,0.00,,---,0.00,VWS V14.01,2013-01-16 00:59:00,
2013-01-15 18:04:00,41.0,6.1,30.21,NNW,338,0.0,1.6,23,0.00,,---,0.00,VWS V14.01,2013-01-16 01:04:00,
2013-01-15 18:09:00,40.5,5.6,30.21,East,90,0.9,0.9,23,0.00,,---,0.00,VWS V14.01,2013-01-16 01:09:00,
2013-01-15 18:14:00,39.9,5.1,30.21,SSW,202,0.9,2.5,23,0.00,,---,0.00,VWS V14.01,2013-01-16 01:14:00,
2013-01-15 18:19:00,39.4,4.7,30.21,SE,135,1.3,2.7,23,0.00,,---,0.00,VWS V14.01,2013-01-16 01:19:00,
2013-01-15 18:24:00,38.8,5.2,30.21,SSE,158,1.1,2.5,24,0.00,,---,0.00,VWS V14.01,2013-01-16 01:24:00,
2013-01-15 18:29:00,38.5,4.8,30.21,South,180,0.0,0.0,24,0.00,,---,0.00,VWS V14.01,2013-01-16 01:29:00,
2013-01-15 18:34:00,38.1,4.5,30.21,SW,225,1.1,1.1,24,0.00,,---,0.00,VWS V14.01,2013-01-16 01:34:00,
2013-01-15 18:39:00,37.9,4.4,30.21,SW,225,0.0,1.6,24,0.00,,---,0.00,VWS V14.01,2013-01-16 01:39:00,
2013-01-15 18:44:00,37.6,4.1,30.21,SW,225,0.0,0.0,24,0.00,,---,0.00,VWS V14.01,2013-01-16 01:44:00,
2013-01-15 18:49:00,37.0,3.6,30.21,NNW,338,2.7,2.7,24,0.00,,---,0.00,VWS V14.01,2013-01-16 01:49:00,
2013-01-15 18:55:00,37.4,3.9,30.21,East,90,0.0,0.0,24,0.00,,---,0.00,VWS V14.01,2013-01-16 01:55:00,
2013-01-15 19:00:00,38.1,6.3,30.21,NW,315,2.5,2.5,26,0.00,,---,0.00,VWS V14.01,2013-01-16 02:00:00,
2013-01-15 19:05:00,38.5,6.6,30.21,WNW,292,1.3,2.0,26,0.00,,---,0.00,VWS V14.01,2013-01-16 02:05:00,
2013-01-15 19:10:00,38.8,6.9,30.21,ESE,112,3.4,3.4,26,0.00,,---,0.00,VWS V14.01,2013-01-16 02:10:00,
2013-01-15 19:15:00,38.8,6.9,30.24,WSW,248,0.9,2.9,26,0.00,,---,0.00,VWS V14.01,2013-01-16 02:15:00,
2013-01-15 19:20:00,38.8,6.9,30.24,SW,225,0.0,0.0,26,0.00,,---,0.00,VWS V14.01,2013-01-16 02:20:00,
2013-01-15 19:25:00,38.7,6.7,30.24,WNW,292,0.0,0.9,26,0.00,,---,0.00,VWS V14.01,2013-01-16 02:25:00,
2013-01-15 19:30:00,38.3,6.4,30.24,SW,225,1.3,2.0,26,0.00,,---,0.00,VWS V14.01,2013-01-16 02:30:00,
2013-01-15 19:35:00,37.6,5.8,30.24,SW,225,2.5,2.5,26,0.00,,---,0.00,VWS V14.01,2013-01-16 02:35:00,
2013-01-15 19:40:00,37.2,6.3,30.24,West,270,3.1,3.1,27,0.00,,---,0.00,VWS V14.01,2013-01-16 02:40:00,
2013-01-15 19:45:00,36.9,6.0,30.24,NW,315,1.1,2.9,27,0.00,,---,0.00,VWS V14.01,2013-01-16 02:45:00,
2013-01-15 19:50:00,36.9,6.0,30.24,WSW,248,1.6,1.6,27,0.00,,---,0.00,VWS V14.01,2013-01-16 02:50:00,
2013-01-15 19:55:00,36.5,5.7,30.24,SW,225,2.5,2.5,27,0.00,,---,0.00,VWS V14.01,2013-01-16 02:55:00,
2013-01-15 20:01:00,36.1,5.4,30.24,SW,225,3.4,3.4,27,0.00,,---,0.00,VWS V14.01,2013-01-16 03:01:00,
2013-01-15 20:06:00,35.6,4.9,30.24,SW,225,4.0,4.0,27,0.00,,---,0.00,VWS V14.01,2013-01-16 03:06:00,
2013-01-15 20:11:00,35.2,4.6,30.24,South,180,2.2,2.2,27,0.00,,---,0.00,VWS V14.01,2013-01-16 03:11:00,
2013-01-15 20:16:00,34.9,4.3,30.24,SW,225,2.0,2.0,27,0.00,,---,0.00,VWS V14.01,2013-01-16 03:16:00,
2013-01-15 20:21:00,34.5,4.0,30.24,West,270,2.2,2.2,27,0.00,,---,0.00,VWS V14.01,2013-01-16 03:21:00,
2013-01-15 20:26:00,34.2,3.7,30.24,NNW,338,1.3,1.3,27,0.00,,---,0.00,VWS V14.01,2013-01-16 03:26:00,
2013-01-15 20:31:00,33.8,3.4,30.24,North,0,0.0,2.2,27,0.00,,---,0.00,VWS V14.01,2013-01-16 03:31:00,
2013-01-15 20:36:00,33.6,4.0,30.24,East,90,0.0,0.0,28,0.00,,---,0.00,VWS V14.01,2013-01-16 03:36:00,
2013-01-15 20:41:00,33.4,3.8,30.24,SW,225,0.0,0.0,28,0.00,,---,0.00,VWS V14.01,2013-01-16 03:41:00,
2013-01-15 20:46:00,33.1,3.5,30.24,WNW,292,0.9,0.9,28,0.00,,---,0.00,VWS V14.01,2013-01-16 03:46:00,
2013-01-15 20:51:00,32.9,3.4,30.24,NW,315,0.0,0.9,28,0.00,,---,0.00,VWS V14.01,2013-01-16 03:51:00,
2013-01-15 20:56:00,32.9,4.9,30.24,NNW,338,2.0,2.0,30,0.00,,---,0.00,VWS V14.01,2013-01-16 03:56:00,
2013-01-15 21:01:00,33.3,5.2,30.24,NW,315,1.3,2.0,30,0.00,,---,0.00,VWS V14.01,2013-01-16 04:01:00,
2013-01-15 21:07:00,33.1,5.0,30.24,NNW,338,0.0,0.0,30,0.00,,---,0.00,VWS V14.01,2013-01-16 04:07:00,
2013-01-15 21:12:00,32.9,4.9,30.24,North,0,0.0,0.9,30,0.00,,---,0.00,VWS V14.01,2013-01-16 04:12:00,
2013-01-15 21:17:00,32.9,4.9,30.24,NNW,338,1.3,1.3,30,0.00,,---,0.00,VWS V14.01,2013-01-16 04:17:00,
2013-01-15 21:22:00,32.7,4.7,30.24,East,90,2.5,3.6,30,0.00,,---,0.00,VWS V14.01,2013-01-16 04:22:00,
2013-01-15 21:27:00,32.5,4.6,30.24,NW,315,0.0,2.0,30,0.00,,---,0.00,VWS V14.01,2013-01-16 04:27:00,
2013-01-15 21:32:00,32.7,4.7,30.24,NNW,338,2.9,2.9,30,0.00,,---,0.00,VWS V14.01,2013-01-16 04:32:00,
2013-01-15 21:37:00,33.1,5.0,30.24,NE,45,3.1,3.4,30,0.00,,---,0.00,VWS V14.01,2013-01-16 04:37:00,
2013-01-15 21:42:00,33.1,5.0,30.24,SE,135,3.8,3.8,30,0.00,,---,0.00,VWS V14.01,2013-01-16 04:42:00,
2013-01-15 21:47:00,33.1,5.0,30.24,NNW,338,3.8,3.8,30,0.00,,---,0.00,VWS V14.01,2013-01-16 04:47:00,
2013-01-15 21:52:00,33.1,5.0,30.24,NNE,22,3.8,3.8,30,0.00,,---,0.00,VWS V14.01,2013-01-16 04:52:00,
2013-01-15 21:57:00,33.1,5.0,30.24,ENE,68,1.6,1.6,30,0.00,,---,0.00,VWS V14.01,2013-01-16 04:57:00,
2013-01-15 22:00:00,32.7,4.7,30.24,ENE,68,0.9,2.0,30,0.00,,---,0.00,VWS V14.01,2013-01-16 05:00:00,
2013-01-15 22:02:00,32.5,4.6,30.24,East,90,0.0,0.9,30,0.00,,---,0.00,VWS V14.01,2013-01-16 05:02:00,
2013-01-15 22:05:00,32.4,4.4,30.24,ENE,68,1.6,2.5,30,0.00,,---,0.00,VWS V14.01,2013-01-16 05:05:00,
2013-01-15 22:10:00,32.4,5.1,30.24,North,0,1.1,2.2,31,0.00,,---,0.00,VWS V14.01,2013-01-16 05:10:00,
2013-01-15 22:15:00,32.4,5.1,30.24,NNW,338,0.0,0.0,31,0.00,,---,0.00,VWS V14.01,2013-01-16 05:15:00,
2013-01-15 22:20:00,32.4,5.1,30.24,NW,315,0.9,1.6,31,0.00,,---,0.00,VWS V14.01,2013-01-16 05:20:00,
2013-01-15 22:25:00,32.2,5.0,30.24,NNW,338,0.0,0.0,31,0.00,,---,0.00,VWS V14.01,2013-01-16 05:25:00,
2013-01-15 22:30:00,32.2,4.2,30.24,North,0,1.1,1.1,30,0.00,,---,0.00,VWS V14.01,2013-01-16 05:30:00,
2013-01-15 22:35:00,32.2,5.0,30.24,NW,315,0.9,0.9,31,0.00,,---,0.00,VWS V14.01,2013-01-16 05:35:00,
2013-01-15 22:40:00,31.8,4.6,30.24,ENE,68,2.9,2.9,31,0.00,,---,0.00,VWS V14.01,2013-01-16 05:40:00,
2013-01-15 22:45:00,31.6,4.5,30.24,ENE,68,2.7,3.1,31,0.00,,---,0.00,VWS V14.01,2013-01-16 05:45:00,
2013-01-15 22:50:00,31.5,4.3,30.24,East,90,1.6,1.6,31,0.00,,---,0.00,VWS V14.01,2013-01-16 05:50:00,
2013-01-15 22:55:00,31.1,4.0,30.27,NE,45,0.9,0.9,31,0.00,,---,0.00,VWS V14.01,2013-01-16 05:55:00,
2013-01-15 23:01:00,31.1,4.0,30.27,NNW,338,1.6,1.6,31,0.00,,---,0.00,VWS V14.01,2013-01-16 06:01:00,
2013-01-15 23:06:00,31.5,4.3,30.27,NNW,338,0.0,0.0,31,0.00,,---,0.00,VWS V14.01,2013-01-16 06:06:00,
2013-01-15 23:11:00,31.1,4.0,30.27,NW,315,0.0,0.0,31,0.00,,---,0.00,VWS V14.01,2013-01-16 06:11:00,
2013-01-15 23:16:00,30.7,3.7,30.27,NW,315,0.0,0.0,31,0.00,,---,0.00,VWS V14.01,2013-01-16 06:16:00,
2013-01-15 23:21:00,30.0,3.1,30.27,WNW,292,0.0,0.0,31,0.00,,---,0.00,VWS V14.01,2013-01-16 06:21:00,
2013-01-15 23:26:00,29.8,2.9,30.27,WSW,248,0.0,0.0,31,0.00,,---,0.00,VWS V14.01,2013-01-16 06:26:00,
2013-01-15 23:31:00,30.0,3.1,30.27,WSW,248,0.0,0.0,31,0.00,,---,0.00,VWS V14.01,2013-01-16 06:31:00,
2013-01-15 23:36:00,30.0,3.1,30.27,West,270,1.1,1.1,31,0.00,,---,0.00,VWS V14.01,2013-01-16 06:36:00,
2013-01-15 23:41:00,30.0,3.1,30.24,West,270,3.8,3.8,31,0.00,,---,0.00,VWS V14.01,2013-01-16 06:41:00,
2013-01-15 23:46:00,30.7,3.7,30.24,WSW,248,2.0,3.6,31,0.00,,---,0.00,VWS V14.01,2013-01-16 06:46:00,
2013-01-15 23:51:00,31.1,4.0,30.24,NW,315,2.2,2.2,31,0.00,,---,0.00,VWS V14.01,2013-01-16 06:51:00,
2013-01-15 23:56:00,30.9,3.8,30.24,WSW,248,1.1,1.6,31,0.00,,---,0.00,VWS V14.01,2013-01-16 06:56:00,